createdAt,value
2023-05-10T00:01:35.441Z,95303.78
2023-05-10T00:03:38.274Z,95297.50
2023-05-10T00:05:41.427Z,95262.78
2023-05-10T00:07:45.687Z,95301.56
2023-05-10T00:09:48.581Z,95293.38
2023-05-10T00:11:51.276Z,95305.22
2023-05-10T00:13:54.121Z,95190.81
2023-05-10T00:15:56.801Z,95302.69
2023-05-10T00:18:00.880Z,95300.38
2023-05-10T00:20:05.803Z,95300.06
2023-05-10T00:22:08.589Z,95297.78
2023-05-10T00:24:11.358Z,95303.38
2023-05-10T00:26:14.214Z,95307.31
2023-05-10T00:28:21.160Z,95299.03
2023-05-10T00:30:24.000Z,95293.13
2023-05-10T00:32:26.703Z,95304.16
2023-05-10T00:34:31.421Z,95302.78
2023-05-10T00:36:34.126Z,95307.72
2023-05-10T00:38:36.840Z,95311.16
2023-05-10T00:40:39.663Z,95310.50
2023-05-10T00:42:47.612Z,95313.00
2023-05-10T00:44:50.426Z,95314.94
2023-05-10T00:46:53.418Z,95321.09
2023-05-10T00:48:56.278Z,95319.06
2023-05-10T00:51:01.097Z,95306.13
2023-05-10T00:53:04.488Z,95326.09
2023-05-10T00:55:08.818Z,95324.69
2023-05-10T00:57:11.556Z,95315.56
2023-05-10T00:59:15.326Z,95312.91
2023-05-10T01:01:19.582Z,95318.34
2023-05-10T01:03:23.170Z,95295.25
2023-05-10T01:05:26.531Z,95320.75
2023-05-10T01:07:30.771Z,95326.13
2023-05-10T01:09:34.690Z,95314.81
2023-05-10T01:11:38.688Z,95333.66
2023-05-10T01:13:44.126Z,95341.28
2023-05-10T01:15:48.417Z,95328.00
2023-05-10T01:17:53.309Z,95347.16
2023-05-10T01:19:56.100Z,95336.88
2023-05-10T01:22:17.445Z,95341.25
2023-05-10T01:24:42.004Z,95341.31
2023-05-10T01:27:05.624Z,95346.97
2023-05-10T01:29:30.420Z,95345.84
2023-05-10T01:31:44.271Z,95338.91
2023-05-10T01:33:56.808Z,95351.50
2023-05-10T01:36:07.603Z,95348.25
2023-05-10T01:38:20.794Z,95345.59
2023-05-10T01:40:31.451Z,95354.75
2023-05-10T01:42:40.225Z,95351.53
2023-05-10T01:44:48.450Z,95351.47
2023-05-10T01:46:59.659Z,95358.72
2023-05-10T01:49:05.986Z,95362.50
2023-05-10T01:51:10.605Z,95361.09
2023-05-10T01:53:15.159Z,95364.03
2023-05-10T01:55:21.934Z,95358.63
2023-05-10T01:57:29.717Z,95357.81
2023-05-10T01:59:40.121Z,95363.75
2023-05-10T02:01:44.788Z,95362.91
2023-05-10T02:03:48.935Z,95374.50
2023-05-10T02:05:55.629Z,95373.56
2023-05-10T02:08:00.193Z,95309.59
2023-05-10T02:10:04.799Z,95378.59
2023-05-10T02:12:09.386Z,95376.66
2023-05-10T02:14:13.548Z,95371.25
2023-05-10T02:16:18.203Z,95352.16
2023-05-10T02:18:21.248Z,95376.06
2023-05-10T02:20:25.462Z,95345.72
2023-05-10T02:22:30.598Z,95390.06
2023-05-10T02:24:35.568Z,95379.53
2023-05-10T02:26:40.270Z,95298.13
2023-05-10T02:28:44.408Z,95385.72
2023-05-10T02:30:49.516Z,95380.91
2023-05-10T02:32:54.396Z,95386.00
2023-05-10T02:34:58.335Z,95386.81
2023-05-10T02:37:03.317Z,95393.03
2023-05-10T02:39:10.974Z,95388.44
2023-05-10T02:41:15.048Z,95354.31
2023-05-10T02:43:20.409Z,95387.09
2023-05-10T02:45:28.976Z,95395.97
2023-05-10T02:47:32.346Z,95397.72
2023-05-10T02:49:35.919Z,95397.66
2023-05-10T02:51:45.403Z,95301.72
2023-05-10T02:53:51.472Z,95391.72
2023-05-10T02:56:00.794Z,95394.94
2023-05-10T02:58:04.667Z,95396.00
2023-05-10T03:00:09.497Z,95395.84
2023-05-10T03:02:12.845Z,95397.22
2023-05-10T03:04:16.122Z,95404.75
2023-05-10T03:06:18.998Z,95399.44
2023-05-10T03:08:21.847Z,95399.97
2023-05-10T03:10:29.694Z,95398.03
2023-05-10T03:12:48.941Z,95399.88
2023-05-10T03:14:59.529Z,95355.53
2023-05-10T03:17:12.349Z,95410.09
2023-05-10T03:19:24.484Z,95407.72
2023-05-10T03:21:31.037Z,95400.97
2023-05-10T03:23:37.911Z,95382.13
2023-05-10T03:25:44.702Z,95409.81
2023-05-10T03:27:50.092Z,95379.53
2023-05-10T03:29:54.608Z,95412.88
2023-05-10T03:31:57.525Z,95415.78
2023-05-10T03:34:00.365Z,95415.75
2023-05-10T03:36:04.145Z,95413.59
2023-05-10T03:38:06.886Z,95418.69
2023-05-10T03:40:11.869Z,95414.91
2023-05-10T03:42:18.856Z,95328.13
2023-05-10T03:44:23.000Z,95425.66
2023-05-10T03:46:25.764Z,95429.97
2023-05-10T03:48:29.114Z,95397.38
2023-05-10T03:50:31.883Z,95415.13
2023-05-10T03:52:34.980Z,95418.63
2023-05-10T03:54:37.816Z,95399.50
2023-05-10T03:56:41.431Z,95404.34
2023-05-10T03:58:44.254Z,95421.63
2023-05-10T04:00:48.434Z,95403.06
2023-05-10T04:02:51.433Z,95412.72
2023-05-10T04:04:56.137Z,95414.31
2023-05-10T04:06:58.943Z,95414.56
2023-05-10T04:09:04.995Z,95424.84
2023-05-10T04:11:09.439Z,95428.09
2023-05-10T04:13:12.213Z,95427.56
2023-05-10T04:15:15.196Z,95425.94
2023-05-10T04:17:19.387Z,95425.72
2023-05-10T04:19:22.289Z,95435.66
2023-05-10T04:21:25.607Z,95381.91
2023-05-10T04:23:29.317Z,95429.75
2023-05-10T04:25:32.061Z,95427.84
2023-05-10T04:27:34.887Z,95424.09
2023-05-10T04:29:37.863Z,95429.22
2023-05-10T04:31:40.751Z,95434.34
2023-05-10T04:33:44.870Z,95430.31
2023-05-10T04:35:47.820Z,95435.44
2023-05-10T04:37:50.615Z,95435.16
2023-05-10T04:39:53.692Z,95430.81
2023-05-10T04:41:56.531Z,95435.41
2023-05-10T04:43:59.280Z,95428.91
2023-05-10T04:46:02.084Z,95431.09
2023-05-10T04:48:05.180Z,95437.00
2023-05-10T04:50:10.191Z,95439.69
2023-05-10T04:52:13.376Z,95438.06
2023-05-10T04:54:16.084Z,95442.41
2023-05-10T04:56:18.790Z,95444.56
2023-05-10T04:58:21.878Z,95451.56
2023-05-10T05:00:25.585Z,95452.13
2023-05-10T05:02:28.399Z,95445.94
2023-05-10T05:04:31.920Z,95453.22
2023-05-10T05:06:36.107Z,95454.53
2023-05-10T05:08:41.886Z,95335.72
2023-05-10T05:10:44.659Z,95386.00
2023-05-10T05:12:47.431Z,95456.47
2023-05-10T05:14:50.205Z,95458.06
2023-05-10T05:16:52.987Z,95465.88
2023-05-10T05:18:55.772Z,95465.34
2023-05-10T05:20:58.528Z,95463.47
2023-05-10T05:23:02.782Z,95393.81
2023-05-10T05:25:06.566Z,95462.91
2023-05-10T05:27:09.489Z,95468.81
2023-05-10T05:29:12.202Z,95460.75
2023-05-10T05:31:14.983Z,95459.66
2023-05-10T05:33:17.784Z,95470.44
2023-05-10T05:35:20.588Z,95450.00
2023-05-10T05:37:23.699Z,95465.59
2023-05-10T05:39:27.748Z,95469.41
2023-05-10T05:41:30.530Z,95459.16
2023-05-10T05:43:33.657Z,95474.47
2023-05-10T05:45:37.371Z,95473.91
2023-05-10T05:47:40.211Z,95467.66
2023-05-10T05:49:43.053Z,95473.03
2023-05-10T05:51:45.970Z,95474.06
2023-05-10T05:53:48.917Z,95479.19
2023-05-10T05:55:56.792Z,95474.56
2023-05-10T05:57:59.748Z,95483.19
2023-05-10T06:00:03.726Z,95483.19
2023-05-10T06:02:15.349Z,95480.47
2023-05-10T06:04:18.646Z,95480.47
2023-05-10T06:06:21.464Z,95472.91
2023-05-10T06:08:24.477Z,95459.97
2023-05-10T06:10:27.627Z,95479.31
2023-05-10T06:12:31.707Z,95488.44
2023-05-10T06:14:34.529Z,95477.63
2023-05-10T06:16:37.449Z,95467.97
2023-05-10T06:18:40.168Z,95488.13
2023-05-10T06:20:43.880Z,95491.06
2023-05-10T06:22:46.692Z,95494.03
2023-05-10T06:24:49.464Z,95506.22
2023-05-10T06:26:52.247Z,95500.84
2023-05-10T06:28:56.376Z,95461.88
2023-05-10T06:30:59.124Z,95508.72
2023-05-10T06:33:01.918Z,95503.06
2023-05-10T06:35:05.040Z,95506.56
2023-05-10T06:37:07.770Z,95516.06
2023-05-10T06:39:10.502Z,95512.97
2023-05-10T06:41:13.256Z,95505.13
2023-05-10T06:43:16.150Z,95510.59
2023-05-10T06:45:20.575Z,95508.09
2023-05-10T06:47:23.592Z,95516.13
2023-05-10T06:49:26.312Z,95511.94
2023-05-10T06:51:29.068Z,95513.56
2023-05-10T06:53:31.879Z,95514.31
2023-05-10T06:55:34.688Z,95483.38
2023-05-10T06:57:37.491Z,95462.09
2023-05-10T06:59:40.360Z,95517.16
2023-05-10T07:01:44.704Z,95517.47
2023-05-10T07:03:47.560Z,95511.75
2023-05-10T07:05:50.670Z,95518.75
2023-05-10T07:07:53.677Z,95514.63
2023-05-10T07:09:57.588Z,95512.38
2023-05-10T07:12:00.689Z,95518.00
2023-05-10T07:14:03.537Z,95524.72
2023-05-10T07:16:07.388Z,95517.94
2023-05-10T07:18:11.592Z,95526.03
2023-05-10T07:20:14.698Z,95468.31
2023-05-10T07:22:18.631Z,95530.63
2023-05-10T07:24:21.419Z,95514.00
2023-05-10T07:26:24.991Z,95519.88
2023-05-10T07:28:27.736Z,95513.63
2023-05-10T07:30:30.745Z,95520.44
2023-05-10T07:32:33.621Z,95508.66
2023-05-10T07:34:37.898Z,95513.56
2023-05-10T07:36:40.664Z,95515.28
2023-05-10T07:38:43.394Z,95510.56
2023-05-10T07:40:46.174Z,95514.25
2023-05-10T07:42:48.869Z,95507.31
2023-05-10T07:44:52.044Z,95508.84
2023-05-10T07:46:54.783Z,95525.72
2023-05-10T07:48:57.578Z,95521.47
2023-05-10T07:51:01.671Z,95513.28
2023-05-10T07:53:04.371Z,95512.94
2023-05-10T07:55:08.606Z,95518.75
2023-05-10T07:57:11.656Z,95504.75
2023-05-10T07:59:17.814Z,95518.94
2023-05-10T08:01:20.767Z,95524.34
2023-05-10T08:03:23.553Z,95525.75
2023-05-10T08:05:26.313Z,95516.69
2023-05-10T08:07:30.434Z,95444.88
2023-05-10T08:09:33.224Z,95530.25
2023-05-10T08:11:36.216Z,95535.66
2023-05-10T08:13:39.012Z,95529.00
2023-05-10T08:15:41.849Z,95523.53
2023-05-10T08:17:45.037Z,95536.72
2023-05-10T08:19:47.829Z,95532.78
2023-05-10T08:21:50.605Z,95524.69
2023-05-10T08:23:54.646Z,95528.66
2023-05-10T08:25:57.398Z,95531.50
2023-05-10T08:28:00.137Z,95538.66
2023-05-10T08:30:02.910Z,95535.22
2023-05-10T08:32:06.205Z,95481.63
2023-05-10T08:34:09.254Z,95462.41
2023-05-10T08:36:12.042Z,95548.91
2023-05-10T08:38:14.811Z,95563.13
2023-05-10T08:40:21.594Z,95547.19
2023-05-10T08:42:28.078Z,95552.00
2023-05-10T08:44:32.749Z,95558.66
2023-05-10T08:46:39.788Z,95484.34
2023-05-10T08:48:43.626Z,95550.38
2023-05-10T08:50:48.888Z,95555.44
2023-05-10T08:52:54.992Z,95566.97
2023-05-10T08:54:58.145Z,95569.63
2023-05-10T08:57:02.676Z,95557.38
2023-05-10T08:59:05.572Z,95569.50
2023-05-10T09:01:09.610Z,95560.13
2023-05-10T09:03:12.456Z,95566.03
2023-05-10T09:05:17.167Z,95568.66
2023-05-10T09:07:21.557Z,95570.53
2023-05-10T09:09:25.993Z,95550.38
2023-05-10T09:11:30.063Z,95558.41
2023-05-10T09:13:34.605Z,95564.50
2023-05-10T09:15:37.291Z,95565.38
2023-05-10T09:17:40.864Z,95567.09
2023-05-10T09:19:43.693Z,95567.34
2023-05-10T09:21:46.449Z,95565.69
2023-05-10T09:23:51.020Z,95564.97
2023-05-10T09:26:05.503Z,95559.38
2023-05-10T09:28:09.373Z,95581.78
2023-05-10T09:30:18.167Z,95565.38
2023-05-10T09:32:20.907Z,95567.78
2023-05-10T09:34:31.470Z,95569.72
2023-05-10T09:36:34.613Z,95581.47
2023-05-10T09:38:47.767Z,95573.00
2023-05-10T09:40:55.334Z,95576.81
2023-05-10T09:42:59.410Z,95580.19
2023-05-10T09:45:03.890Z,95584.59
2023-05-10T09:47:08.082Z,95587.22
2023-05-10T09:49:16.265Z,95577.63
2023-05-10T09:51:22.510Z,95577.94
2023-05-10T09:53:25.224Z,95582.03
2023-05-10T09:55:40.625Z,95580.63
2023-05-10T09:57:43.615Z,95585.56
2023-05-10T09:59:46.557Z,95581.41
2023-05-10T10:01:52.137Z,95588.50
2023-05-10T10:03:58.749Z,95579.56
2023-05-10T10:06:01.504Z,95510.78
2023-05-10T10:08:06.026Z,95539.50
2023-05-10T10:10:12.480Z,95585.28
2023-05-10T10:12:15.376Z,95591.94
2023-05-10T10:14:20.417Z,95579.31
2023-05-10T10:16:23.659Z,95586.84
2023-05-10T10:18:28.246Z,95597.06
2023-05-10T10:20:32.421Z,95594.28
2023-05-10T10:22:35.507Z,95564.97
2023-05-10T10:24:38.380Z,95591.63
2023-05-10T10:26:43.707Z,95599.50
2023-05-10T10:28:54.112Z,95597.75
2023-05-10T10:30:58.581Z,95595.88
2023-05-10T10:33:27.925Z,95597.41
2023-05-10T10:35:33.658Z,95609.78
2023-05-10T10:37:47.196Z,95603.00
2023-05-10T10:39:50.651Z,95603.16
2023-05-10T10:41:55.273Z,95600.31
2023-05-10T10:44:35.410Z,95591.91
2023-05-10T10:47:02.063Z,95609.75
2023-05-10T10:49:12.313Z,95610.41
2023-05-10T10:51:17.072Z,95607.34
2023-05-10T10:53:19.877Z,95602.69
2023-05-10T10:55:23.424Z,95597.25
2023-05-10T10:57:27.517Z,95600.66
2023-05-10T10:59:30.395Z,95601.03
2023-05-10T11:01:35.388Z,95611.84
2023-05-10T11:03:38.372Z,95583.66
2023-05-10T11:05:44.563Z,95599.19
2023-05-10T11:07:55.822Z,95587.97
2023-05-10T11:10:06.597Z,95595.22
2023-05-10T11:12:11.259Z,95610.19
2023-05-10T11:14:14.111Z,95609.44
2023-05-10T11:16:19.198Z,95619.81
2023-05-10T11:18:23.208Z,95630.00
2023-05-10T11:20:34.159Z,95614.22
2023-05-10T11:22:52.429Z,95620.28
2023-05-10T11:25:03.389Z,95619.94
2023-05-10T11:27:06.297Z,95622.47
2023-05-10T11:29:09.537Z,95616.66
2023-05-10T11:31:13.535Z,95582.66
2023-05-10T11:33:20.367Z,95622.56
2023-05-10T11:35:23.125Z,95612.84
2023-05-10T11:37:25.859Z,95624.03
2023-05-10T11:39:29.785Z,95629.19
2023-05-10T11:41:34.101Z,95631.72
2023-05-10T11:43:39.174Z,95596.25
2023-05-10T11:45:43.425Z,95637.78
2023-05-10T11:47:46.239Z,95636.09
2023-05-10T11:49:51.427Z,95582.28
2023-05-10T11:51:54.194Z,95640.19
2023-05-10T11:53:58.522Z,95633.53
2023-05-10T11:56:06.066Z,95454.03
2023-05-10T11:58:10.197Z,95646.84
2023-05-10T12:00:14.154Z,95645.63
2023-05-10T12:02:18.998Z,95630.22
2023-05-10T12:04:22.270Z,95636.19
2023-05-10T12:06:28.071Z,95637.47
2023-05-10T12:08:32.285Z,95643.19
2023-05-10T12:10:36.692Z,95655.41
2023-05-10T12:12:40.824Z,95642.72
2023-05-10T12:14:44.926Z,95641.41
2023-05-10T12:16:47.689Z,95648.53
2023-05-10T12:18:51.958Z,95652.97
2023-05-10T12:20:55.540Z,95642.75
2023-05-10T12:23:00.695Z,95632.00
2023-05-10T12:25:04.625Z,95627.72
2023-05-10T12:27:09.045Z,95609.28
2023-05-10T12:29:16.581Z,95612.16
2023-05-10T12:31:20.839Z,95633.91
2023-05-10T12:33:23.598Z,95639.25
2023-05-10T12:35:26.561Z,95627.06
2023-05-10T12:37:30.161Z,95629.63
2023-05-10T12:39:42.881Z,95627.31
2023-05-10T12:41:45.681Z,95639.69
2023-05-10T12:43:49.045Z,95592.97
2023-05-10T12:45:51.889Z,95634.91
2023-05-10T12:47:56.005Z,95630.28
2023-05-10T12:49:58.932Z,95644.13
2023-05-10T12:52:01.647Z,95639.50
2023-05-10T12:54:04.616Z,95596.91
2023-05-10T12:56:08.353Z,95642.31
2023-05-10T12:58:12.378Z,95650.13
2023-05-10T13:00:17.769Z,95638.75
2023-05-10T13:02:22.007Z,95638.06
2023-05-10T13:04:26.177Z,95631.56
2023-05-10T13:06:29.087Z,95629.63
2023-05-10T13:08:34.738Z,95638.97
2023-05-10T13:10:37.587Z,95625.09
2023-05-10T13:12:40.366Z,95631.56
2023-05-10T13:14:43.150Z,95619.53
2023-05-10T13:16:46.377Z,95619.56
2023-05-10T13:18:49.412Z,95609.97
2023-05-10T13:20:53.597Z,95623.72
2023-05-10T13:22:56.344Z,95620.28
2023-05-10T13:24:59.118Z,95623.16
2023-05-10T13:27:01.879Z,95622.25
2023-05-10T13:29:04.776Z,95618.50
2023-05-10T13:31:07.495Z,95618.81
2023-05-10T13:33:10.270Z,95613.81
2023-05-10T13:35:12.997Z,95623.44
2023-05-10T13:37:17.109Z,95603.16
2023-05-10T13:39:20.225Z,95607.69
2023-05-10T13:41:22.944Z,95599.41
2023-05-10T13:43:26.035Z,95621.53
2023-05-10T13:45:28.773Z,95614.72
2023-05-10T13:47:31.913Z,95614.56
2023-05-10T13:49:34.919Z,95564.13
2023-05-10T13:51:37.771Z,95615.09
2023-05-10T13:53:42.393Z,95609.00
2023-05-10T13:55:45.135Z,95615.03
2023-05-10T13:57:47.909Z,95614.16
2023-05-10T13:59:50.669Z,95625.06
2023-05-10T14:01:53.790Z,95619.72
2023-05-10T14:03:56.578Z,95618.16
2023-05-10T14:05:59.404Z,95610.94
2023-05-10T14:08:02.366Z,95615.75
2023-05-10T14:10:07.136Z,95589.53
2023-05-10T14:12:09.984Z,95610.78
2023-05-10T14:14:13.639Z,95432.47
2023-05-10T14:16:16.656Z,95512.31
2023-05-10T14:18:19.541Z,95430.34
2023-05-10T14:20:22.318Z,95609.53
2023-05-10T14:22:25.076Z,95601.69
2023-05-10T14:24:27.880Z,95600.97
2023-05-10T14:26:32.337Z,95604.56
2023-05-10T14:28:35.119Z,95595.00
2023-05-10T14:30:37.929Z,95594.31
2023-05-10T14:32:40.673Z,95589.53
2023-05-10T14:34:43.441Z,95595.16
2023-05-10T14:36:46.219Z,95593.25
2023-05-10T14:38:48.957Z,95591.50
2023-05-10T14:40:51.683Z,95591.84
2023-05-10T14:42:55.807Z,95602.19
2023-05-10T14:44:58.521Z,95594.16
2023-05-10T14:47:01.348Z,95572.19
2023-05-10T14:49:04.326Z,95597.72
2023-05-10T14:51:07.623Z,95595.91
2023-05-10T14:53:10.509Z,95600.47
2023-05-10T14:55:13.287Z,95596.69
2023-05-10T14:57:16.176Z,95598.47
2023-05-10T14:59:20.252Z,95595.13
2023-05-10T15:01:23.515Z,95451.91
2023-05-10T15:03:27.160Z,95524.75
2023-05-10T15:05:30.333Z,95594.00
2023-05-10T15:07:33.402Z,95589.09
2023-05-10T15:09:36.192Z,95593.03
2023-05-10T15:11:38.912Z,95575.25
2023-05-10T15:13:41.651Z,95589.53
2023-05-10T15:15:45.900Z,95521.25
2023-05-10T15:17:49.689Z,95587.19
2023-05-10T15:19:52.539Z,95548.63
2023-05-10T15:21:56.300Z,95590.31
2023-05-10T15:23:59.090Z,95595.47
2023-05-10T15:26:03.766Z,95595.75
2023-05-10T15:28:06.834Z,95596.03
2023-05-10T15:30:10.592Z,95599.69
2023-05-10T15:32:14.618Z,95570.84
2023-05-10T15:34:17.713Z,95582.03
2023-05-10T15:36:20.622Z,95591.41
2023-05-10T15:38:23.536Z,95601.19
2023-05-10T15:40:26.323Z,95604.13
2023-05-10T15:42:29.171Z,95610.91
2023-05-10T15:44:32.019Z,95615.38
2023-05-10T15:46:34.726Z,95587.16
2023-05-10T15:48:40.141Z,95614.84
2023-05-10T15:50:42.865Z,95617.63
2023-05-10T15:52:45.620Z,95610.31
2023-05-10T15:54:48.347Z,95619.75
2023-05-10T15:56:51.025Z,95618.59
2023-05-10T15:58:53.817Z,95622.91
2023-05-10T16:00:57.615Z,95625.69
2023-05-10T16:03:00.811Z,95610.69
2023-05-10T16:05:05.764Z,95578.13
2023-05-10T16:07:08.457Z,95629.31
2023-05-10T16:09:11.504Z,95630.88
2023-05-10T16:11:14.227Z,95630.81
2023-05-10T16:13:17.067Z,95633.34
2023-05-10T16:15:21.651Z,95631.34
2023-05-10T16:17:24.540Z,95638.19
2023-05-10T16:19:29.751Z,95634.66
2023-05-10T16:21:34.542Z,95641.75
2023-05-10T16:23:37.607Z,95644.25
2023-05-10T16:25:40.412Z,95648.44
2023-05-10T16:27:43.132Z,95646.47
2023-05-10T16:29:45.875Z,95498.88
2023-05-10T16:31:48.679Z,95637.31
2023-05-10T16:33:51.396Z,95591.09
2023-05-10T16:35:54.119Z,95619.88
2023-05-10T16:37:58.422Z,95639.25
2023-05-10T16:40:01.400Z,95640.78
2023-05-10T16:42:04.281Z,95649.59
2023-05-10T16:44:07.044Z,95643.53
2023-05-10T16:46:12.958Z,95651.41
2023-05-10T16:48:15.647Z,95657.47
2023-05-10T16:50:18.407Z,95660.31
2023-05-10T16:52:21.167Z,95641.94
2023-05-10T16:54:25.826Z,95664.00
2023-05-10T16:56:28.599Z,95637.66
2023-05-10T16:58:31.374Z,95610.72
2023-05-10T17:00:34.137Z,95662.16
2023-05-10T17:02:36.973Z,95595.53
2023-05-10T17:04:39.764Z,95485.38
2023-05-10T17:06:42.493Z,95668.53
2023-05-10T17:08:45.566Z,95654.47
2023-05-10T17:10:49.741Z,95658.53
2023-05-10T17:12:53.650Z,95670.97
2023-05-10T17:14:56.426Z,95666.38
2023-05-10T17:16:59.344Z,95663.06
2023-05-10T17:19:02.294Z,95673.78
2023-05-10T17:21:05.291Z,95666.19
2023-05-10T17:23:08.073Z,95657.72
2023-05-10T17:25:11.336Z,95671.13
2023-05-10T17:27:15.649Z,95670.19
2023-05-10T17:29:18.403Z,95676.78
2023-05-10T17:31:21.120Z,95678.19
2023-05-10T17:33:23.895Z,95673.91
2023-05-10T17:35:26.712Z,95675.25
2023-05-10T17:37:29.845Z,95670.66
2023-05-10T17:39:32.626Z,95672.81
2023-05-10T17:41:35.412Z,95557.00
2023-05-10T17:43:39.517Z,95677.16
2023-05-10T17:45:42.218Z,95681.22
2023-05-10T17:47:44.980Z,95599.53
2023-05-10T17:49:47.743Z,95683.63
2023-05-10T17:51:50.750Z,95681.75
2023-05-10T17:53:53.717Z,95675.25
2023-05-10T17:55:58.875Z,95575.03
2023-05-10T17:58:01.731Z,95680.13
2023-05-10T18:00:08.724Z,95664.47
2023-05-10T18:02:11.597Z,95165.78
2023-05-10T18:04:14.410Z,95669.34
2023-05-10T18:06:17.325Z,95609.53
2023-05-10T18:08:22.863Z,95514.19
2023-05-10T18:10:25.954Z,95658.00
2023-05-10T18:12:28.828Z,95620.31
2023-05-10T18:14:40.485Z,95688.22
2023-05-10T18:16:45.604Z,95649.94
2023-05-10T18:18:48.966Z,95623.81
2023-05-10T18:20:56.710Z,95678.50
2023-05-10T18:22:59.688Z,95676.06
2023-05-10T18:25:02.477Z,95617.03
2023-05-10T18:27:05.861Z,95686.59
2023-05-10T18:29:08.804Z,95689.78
2023-05-10T18:31:12.585Z,95627.81
2023-05-10T18:33:17.960Z,95699.50
2023-05-10T18:35:21.447Z,95625.06
2023-05-10T18:37:25.241Z,95659.06
2023-05-10T18:39:28.046Z,95569.88
2023-05-10T18:41:30.898Z,95685.25
2023-05-10T18:43:34.805Z,95697.94
2023-05-10T18:45:39.005Z,95689.28
2023-05-10T18:47:41.861Z,95665.78
2023-05-10T18:49:46.251Z,95573.31
2023-05-10T18:51:48.947Z,95657.50
2023-05-10T18:53:51.770Z,95700.63
2023-05-10T18:55:58.859Z,95692.25
2023-05-10T18:58:01.777Z,95702.22
2023-05-10T19:00:05.522Z,95701.44
2023-05-10T19:02:09.142Z,95706.00
2023-05-10T19:04:11.983Z,95704.13
2023-05-10T19:06:16.210Z,95708.97
2023-05-10T19:08:19.165Z,95703.31
2023-05-10T19:10:22.188Z,95678.78
2023-05-10T19:12:25.104Z,95672.59
2023-05-10T19:14:27.858Z,95720.03
2023-05-10T19:16:30.877Z,95727.53
2023-05-10T19:18:34.215Z,95722.63
2023-05-10T19:20:38.086Z,95725.00
2023-05-10T19:22:57.863Z,95701.56
2023-05-10T19:25:05.863Z,95699.88
2023-05-10T19:27:09.221Z,95727.31
2023-05-10T19:29:11.922Z,95732.22
2023-05-10T19:31:14.769Z,95724.72
2023-05-10T19:33:19.215Z,95731.19
2023-05-10T19:35:21.930Z,95710.22
2023-05-10T19:37:24.640Z,95731.56
2023-05-10T19:39:30.802Z,95733.19
2023-05-10T19:41:33.491Z,95740.50
2023-05-10T19:43:37.904Z,95681.44
2023-05-10T19:45:40.714Z,95738.06
2023-05-10T19:47:43.620Z,95731.88
2023-05-10T19:49:46.481Z,95739.41
2023-05-10T19:51:49.278Z,95739.97
2023-05-10T19:53:51.936Z,95738.88
2023-05-10T19:55:56.453Z,95741.03
2023-05-10T19:58:00.533Z,95744.28
2023-05-10T20:00:04.958Z,95644.53
2023-05-10T20:02:13.915Z,95736.19
2023-05-10T20:04:16.711Z,95728.13
2023-05-10T20:06:19.462Z,95684.38
2023-05-10T20:08:22.152Z,95739.34
2023-05-10T20:10:26.883Z,95677.28
2023-05-10T20:12:31.222Z,95681.94
2023-05-10T20:14:33.938Z,95738.06
2023-05-10T20:16:36.655Z,95733.47
2023-05-10T20:18:39.399Z,95740.50
2023-05-10T20:20:42.279Z,95741.53
2023-05-10T20:22:45.760Z,95728.06
2023-05-10T20:24:48.542Z,95738.28
2023-05-10T20:26:51.260Z,95735.03
2023-05-10T20:28:55.298Z,95717.25
2023-05-10T20:30:58.794Z,95685.31
2023-05-10T20:33:01.484Z,95741.75
2023-05-10T20:35:04.263Z,95739.59
2023-05-10T20:37:07.056Z,95736.63
2023-05-10T20:39:10.415Z,95737.72
2023-05-10T20:41:13.155Z,95735.19
2023-05-10T20:43:15.837Z,95735.50
2023-05-10T20:45:19.885Z,95738.13
2023-05-10T20:47:23.857Z,95631.34
2023-05-10T20:49:27.965Z,95722.28
2023-05-10T20:51:33.223Z,95715.06
2023-05-10T20:53:36.042Z,95730.41
2023-05-10T20:55:38.781Z,95720.75
2023-05-10T20:57:41.523Z,95711.09
2023-05-10T20:59:44.303Z,95726.50
2023-05-10T21:01:48.514Z,95612.56
2023-05-10T21:03:51.319Z,95686.06
2023-05-10T21:05:54.157Z,95725.53
2023-05-10T21:07:56.923Z,95592.31
2023-05-10T21:09:59.685Z,95717.25
2023-05-10T21:12:03.235Z,95715.41
2023-05-10T21:14:06.059Z,95617.06
2023-05-10T21:16:08.992Z,95713.47
2023-05-10T21:18:13.107Z,95713.75
2023-05-10T21:20:16.211Z,95717.50
2023-05-10T21:22:19.138Z,95715.22
2023-05-10T21:24:21.890Z,95717.63
2023-05-10T21:26:24.703Z,95693.63
2023-05-10T21:28:27.451Z,95714.91
2023-05-10T21:30:30.261Z,95713.06
2023-05-10T21:32:33.153Z,95684.06
2023-05-10T21:34:37.305Z,95712.03
2023-05-10T21:36:40.018Z,95709.88
2023-05-10T21:38:44.476Z,95712.53
2023-05-10T21:40:47.252Z,95705.56
2023-05-10T21:42:50.026Z,95712.44
2023-05-10T21:44:52.874Z,95708.72
2023-05-10T21:46:55.669Z,95636.13
2023-05-10T21:48:58.422Z,95698.31
2023-05-10T21:51:02.698Z,95651.41
2023-05-10T21:53:05.603Z,95694.03
2023-05-10T21:55:09.804Z,95703.84
2023-05-10T21:57:12.595Z,95698.53
2023-05-10T21:59:15.353Z,95664.81
2023-05-10T22:01:18.156Z,95694.50
2023-05-10T22:03:21.057Z,95684.28
2023-05-10T22:05:24.125Z,95703.16
2023-05-10T22:07:28.123Z,95642.84
2023-05-10T22:09:30.764Z,95694.06
2023-05-10T22:11:33.648Z,95674.06
2023-05-10T22:13:36.331Z,95700.56
2023-05-10T22:15:39.384Z,95691.06
2023-05-10T22:17:42.144Z,95706.47
2023-05-10T22:19:44.924Z,95696.84
2023-05-10T22:21:47.643Z,95706.06
2023-05-10T22:23:51.769Z,95695.63
2023-05-10T22:25:54.473Z,95696.47
2023-05-10T22:27:57.140Z,95701.59
2023-05-10T22:29:59.780Z,95700.81
2023-05-10T22:32:05.567Z,95702.41
2023-05-10T22:34:08.280Z,95705.91
2023-05-10T22:36:10.908Z,95669.22
2023-05-10T22:38:13.645Z,95704.63
2023-05-10T22:40:18.080Z,95707.31
2023-05-10T22:42:20.954Z,95708.94
2023-05-10T22:44:23.613Z,95706.50
2023-05-10T22:46:26.343Z,95709.47
2023-05-10T22:48:29.748Z,95698.41
2023-05-10T22:50:32.621Z,95696.53
2023-05-10T22:52:35.263Z,95705.41
2023-05-10T22:54:37.997Z,95676.03
2023-05-10T22:56:42.554Z,95698.69
2023-05-10T22:58:45.427Z,95699.78
2023-05-10T23:00:48.170Z,95708.38
2023-05-10T23:02:51.571Z,95708.91
2023-05-10T23:04:54.446Z,95700.03
2023-05-10T23:06:57.234Z,95695.44
2023-05-10T23:09:00.147Z,95695.97
2023-05-10T23:11:02.859Z,95705.91
2023-05-10T23:13:07.833Z,95705.66
2023-05-10T23:15:11.535Z,95624.16
2023-05-10T23:17:14.440Z,95705.13
2023-05-10T23:19:17.161Z,95705.94
2023-05-10T23:21:19.943Z,95707.84
2023-05-10T23:23:22.631Z,95670.44
2023-05-10T23:25:25.606Z,95714.16
2023-05-10T23:27:29.897Z,95713.13
2023-05-10T23:29:34.770Z,95707.69
2023-05-10T23:31:37.660Z,95703.34
2023-05-10T23:33:40.437Z,95703.25
2023-05-10T23:35:43.513Z,95707.03
2023-05-10T23:37:46.209Z,95711.97
2023-05-10T23:39:48.917Z,95701.28
2023-05-10T23:41:51.942Z,95711.78
2023-05-10T23:43:55.066Z,95700.50
2023-05-10T23:45:59.503Z,95701.88
2023-05-10T23:48:02.334Z,95701.06
2023-05-10T23:50:06.022Z,95701.31
2023-05-10T23:52:08.852Z,95705.38
2023-05-10T23:54:12.227Z,95702.38
2023-05-10T23:56:14.980Z,95701.31
2023-05-10T23:58:17.740Z,95709.97
